sensor_id;sensor_type;location;lat;lon;timestamp;pressure;altitude;pressure_sealevel;temperature;humidity
40205;BME280;26963;42.666;23.366;2022-08-05T00:00:38;95070.13;;;22.44;50.37
40205;BME280;26963;42.666;23.366;2022-08-05T00:03:09;95059.53;;;22.39;49.31
40205;BME280;26963;42.666;23.366;2022-08-05T00:05:43;95080.19;;;22.40;49.13
40205;BME280;26963;42.666;23.366;2022-08-05T00:08:09;95081.72;;;22.41;48.91
40205;BME280;26963;42.666;23.366;2022-08-05T00:10:34;95052.25;;;22.23;51.24
40205;BME280;26963;42.666;23.366;2022-08-05T00:13:03;95081.03;;;22.44;51.77
40205;BME280;26963;42.666;23.366;2022-08-05T00:15:28;94998.72;;;21.88;50.19
40205;BME280;26963;42.666;23.366;2022-08-05T00:17:53;94911.31;;;21.27;51.68
40205;BME280;26963;42.666;23.366;2022-08-05T00:20:19;95007.06;;;21.76;52.45
40205;BME280;26963;42.666;23.366;2022-08-05T00:22:45;95030.50;;;22.04;53.03
40205;BME280;26963;42.666;23.366;2022-08-05T00:25:10;95058.72;;;22.15;52.94
40205;BME280;26963;42.666;23.366;2022-08-05T00:27:36;95073.75;;;22.28;53.02
40205;BME280;26963;42.666;23.366;2022-08-05T00:30:03;95067.38;;;22.21;53.50
40205;BME280;26963;42.666;23.366;2022-08-05T00:32:29;95071.06;;;22.09;53.66
40205;BME280;26963;42.666;23.366;2022-08-05T00:34:54;95066.75;;;22.08;53.57
40205;BME280;26963;42.666;23.366;2022-08-05T00:37:20;95053.69;;;21.94;53.42
40205;BME280;26963;42.666;23.366;2022-08-05T00:39:49;94939.59;;;21.23;52.95
40205;BME280;26963;42.666;23.366;2022-08-05T00:42:28;95050.91;;;21.90;53.17
40205;BME280;26963;42.666;23.366;2022-08-05T00:44:56;95055.09;;;21.84;50.34
40205;BME280;26963;42.666;23.366;2022-08-05T00:47:22;95055.38;;;21.79;50.13
40205;BME280;26963;42.666;23.366;2022-08-05T00:49:53;95008.41;;;21.43;49.75
40205;BME280;26963;42.666;23.366;2022-08-05T00:52:24;95056.38;;;21.71;50.95
40205;BME280;26963;42.666;23.366;2022-08-05T00:54:53;95039.91;;;21.63;51.06
40205;BME280;26963;42.666;23.366;2022-08-05T00:57:18;95060.31;;;21.73;51.81
40205;BME280;26963;42.666;23.366;2022-08-05T00:59:44;95048.50;;;21.65;50.38
40205;BME280;26963;42.666;23.366;2022-08-05T01:02:12;95065.41;;;21.75;51.04
40205;BME280;26963;42.666;23.366;2022-08-05T01:04:38;95057.81;;;21.64;51.31
40205;BME280;26963;42.666;23.366;2022-08-05T01:07:16;95023.06;;;21.38;52.32
40205;BME280;26963;42.666;23.366;2022-08-05T01:09:41;95058.56;;;21.61;52.69
40205;BME280;26963;42.666;23.366;2022-08-05T01:12:13;95015.94;;;21.30;51.11
40205;BME280;26963;42.666;23.366;2022-08-05T01:14:49;95077.63;;;21.61;51.88
40205;BME280;26963;42.666;23.366;2022-08-05T01:19:54;95069.53;;;21.65;52.73
40205;BME280;26963;42.666;23.366;2022-08-05T01:31:06;95079.72;;;21.52;50.55
40205;BME280;26963;42.666;23.366;2022-08-05T01:33:41;95064.78;;;21.42;49.58
40205;BME280;26963;42.666;23.366;2022-08-05T01:36:14;95069.19;;;21.50;51.25
40205;BME280;26963;42.666;23.366;2022-08-05T01:38:40;95074.16;;;21.45;50.35
40205;BME280;26963;42.666;23.366;2022-08-05T01:41:10;95012.72;;;21.05;49.31
40205;BME280;26963;42.666;23.366;2022-08-05T01:43:37;94953.28;;;20.67;48.55
40205;BME280;26963;42.666;23.366;2022-08-05T01:46:04;95073.56;;;21.35;48.37
40205;BME280;26963;42.666;23.366;2022-08-05T01:48:42;95048.34;;;21.19;48.63
40205;BME280;26963;42.666;23.366;2022-08-05T01:51:10;95003.38;;;20.86;48.92
40205;BME280;26963;42.666;23.366;2022-08-05T01:53:39;95013.41;;;20.82;48.94
40205;BME280;26963;42.666;23.366;2022-08-05T01:56:10;95056.59;;;21.23;48.92
40205;BME280;26963;42.666;23.366;2022-08-05T01:58:39;95043.94;;;21.11;49.03
40205;BME280;26963;42.666;23.366;2022-08-05T02:01:10;95001.75;;;20.81;49.30
40205;BME280;26963;42.666;23.366;2022-08-05T02:03:42;95015.16;;;20.90;49.48
40205;BME280;26963;42.666;23.366;2022-08-05T02:06:15;95076.72;;;21.18;49.45
40205;BME280;26963;42.666;23.366;2022-08-05T02:08:51;95068.03;;;21.12;49.10
40205;BME280;26963;42.666;23.366;2022-08-05T02:11:17;95047.22;;;21.00;49.34
40205;BME280;26963;42.666;23.366;2022-08-05T02:13:53;95079.16;;;21.23;49.93
40205;BME280;26963;42.666;23.366;2022-08-05T02:16:23;95051.22;;;21.07;50.04
40205;BME280;26963;42.666;23.366;2022-08-05T02:19:00;95005.44;;;20.73;50.98
40205;BME280;26963;42.666;23.366;2022-08-05T02:21:41;95082.88;;;21.15;50.58
40205;BME280;26963;42.666;23.366;2022-08-05T02:24:17;95065.59;;;21.07;51.41
40205;BME280;26963;42.666;23.366;2022-08-05T02:26:56;95065.16;;;21.05;51.08
40205;BME280;26963;42.666;23.366;2022-08-05T02:29:24;95053.34;;;20.97;52.30
40205;BME280;26963;42.666;23.366;2022-08-05T02:31:53;95054.50;;;20.96;52.61
40205;BME280;26963;42.666;23.366;2022-08-05T02:34:22;95068.25;;;21.04;52.30
40205;BME280;26963;42.666;23.366;2022-08-05T02:36:54;95079.56;;;21.06;52.67
40205;BME280;26963;42.666;23.366;2022-08-05T02:39:22;95067.00;;;20.81;53.16
40205;BME280;26963;42.666;23.366;2022-08-05T02:41:50;95079.09;;;20.84;53.67
40205;BME280;26963;42.666;23.366;2022-08-05T02:44:17;95075.78;;;20.75;53.01
40205;BME280;26963;42.666;23.366;2022-08-05T02:46:46;95067.28;;;20.60;53.38
40205;BME280;26963;42.666;23.366;2022-08-05T02:49:18;95068.69;;;20.54;53.95
40205;BME280;26963;42.666;23.366;2022-08-05T02:51:45;94994.06;;;20.00;54.10
40205;BME280;26963;42.666;23.366;2022-08-05T02:54:12;94987.56;;;20.04;53.69
40205;BME280;26963;42.666;23.366;2022-08-05T02:56:44;95070.94;;;20.52;54.33
40205;BME280;26963;42.666;23.366;2022-08-05T02:59:11;95055.63;;;20.28;52.90
40205;BME280;26963;42.666;23.366;2022-08-05T03:01:38;95009.66;;;19.87;53.33
40205;BME280;26963;42.666;23.366;2022-08-05T03:04:13;95050.38;;;20.19;53.62
40205;BME280;26963;42.666;23.366;2022-08-05T03:06:40;94870.88;;;18.96;54.01
40205;BME280;26963;42.666;23.366;2022-08-05T03:09:12;94843.00;;;18.67;54.40
40205;BME280;26963;42.666;23.366;2022-08-05T03:11:44;95063.97;;;20.19;54.62
40205;BME280;26963;42.666;23.366;2022-08-05T03:14:09;95040.50;;;20.11;54.05
40205;BME280;26963;42.666;23.366;2022-08-05T03:16:38;95080.34;;;20.23;53.88
40205;BME280;26963;42.666;23.366;2022-08-05T03:19:04;95007.69;;;19.71;54.80
40205;BME280;26963;42.666;23.366;2022-08-05T03:21:30;95069.91;;;20.09;54.43
40205;BME280;26963;42.666;23.366;2022-08-05T03:24:05;94892.50;;;18.93;54.58
40205;BME280;26963;42.666;23.366;2022-08-05T03:26:55;95080.53;;;20.14;54.96
40205;BME280;26963;42.666;23.366;2022-08-05T03:29:23;95066.78;;;20.07;55.92
40205;BME280;26963;42.666;23.366;2022-08-05T03:31:48;95057.66;;;20.15;55.35
40205;BME280;26963;42.666;23.366;2022-08-05T03:34:17;95068.00;;;20.25;55.51
40205;BME280;26963;42.666;23.366;2022-08-05T03:36:44;95077.13;;;20.17;56.31
40205;BME280;26963;42.666;23.366;2022-08-05T03:39:09;95070.97;;;20.20;56.37
40205;BME280;26963;42.666;23.366;2022-08-05T03:41:39;94990.94;;;19.69;56.61
40205;BME280;26963;42.666;23.366;2022-08-05T03:44:04;95051.44;;;20.14;55.98
40205;BME280;26963;42.666;23.366;2022-08-05T03:46:33;95062.75;;;20.32;56.10
40205;BME280;26963;42.666;23.366;2022-08-05T03:49:01;95084.13;;;20.50;54.89
40205;BME280;26963;42.666;23.366;2022-08-05T03:51:29;95088.03;;;20.68;54.30
40205;BME280;26963;42.666;23.366;2022-08-05T03:54:11;94999.72;;;20.27;54.16
40205;BME280;26963;42.666;23.366;2022-08-05T03:56:41;95039.56;;;20.71;52.94
40205;BME280;26963;42.666;23.366;2022-08-05T03:59:24;95017.13;;;20.74;52.18
40205;BME280;26963;42.666;23.366;2022-08-05T04:01:52;94989.22;;;20.77;51.80
40205;BME280;26963;42.666;23.366;2022-08-05T04:04:20;95065.84;;;21.38;51.57
40205;BME280;26963;42.666;23.366;2022-08-05T04:06:49;95023.16;;;21.22;51.36
40205;BME280;26963;42.666;23.366;2022-08-05T04:09:16;95059.41;;;21.65;51.29
40205;BME280;26963;42.666;23.366;2022-08-05T04:11:42;94936.19;;;21.06;50.69
40205;BME280;26963;42.666;23.366;2022-08-05T04:14:10;95071.00;;;22.05;50.01
40205;BME280;26963;42.666;23.366;2022-08-05T04:16:45;94998.97;;;21.79;49.75
40205;BME280;26963;42.666;23.366;2022-08-05T04:19:11;94996.13;;;21.95;49.16
40205;BME280;26963;42.666;23.366;2022-08-05T04:21:37;95061.38;;;22.58;49.03
40205;BME280;26963;42.666;23.366;2022-08-05T04:24:06;94995.16;;;22.34;48.93
40205;BME280;26963;42.666;23.366;2022-08-05T04:26:32;95074.84;;;23.01;49.03
40205;BME280;26963;42.666;23.366;2022-08-05T04:28:58;95070.28;;;23.08;48.38
40205;BME280;26963;42.666;23.366;2022-08-05T04:31:24;95046.00;;;23.00;47.99
40205;BME280;26963;42.666;23.366;2022-08-05T04:33:49;95074.22;;;23.11;47.75
40205;BME280;26963;42.666;23.366;2022-08-05T04:36:15;95070.13;;;22.97;47.91
40205;BME280;26963;42.666;23.366;2022-08-05T04:38:44;94981.06;;;22.28;48.38
40205;BME280;26963;42.666;23.366;2022-08-05T04:41:12;95008.97;;;22.18;49.45
40205;BME280;26963;42.666;23.366;2022-08-05T04:43:43;95077.41;;;22.63;48.79
40205;BME280;26963;42.666;23.366;2022-08-05T04:46:15;95034.47;;;22.33;49.07
40205;BME280;26963;42.666;23.366;2022-08-05T04:49:09;95069.38;;;22.47;49.47
40205;BME280;26963;42.666;23.366;2022-08-05T04:51:38;95051.19;;;22.31;48.93
40205;BME280;26963;42.666;23.366;2022-08-05T04:54:03;95013.38;;;22.03;49.81
40205;BME280;26963;42.666;23.366;2022-08-05T04:56:29;95067.91;;;22.30;50.20
40205;BME280;26963;42.666;23.366;2022-08-05T04:58:54;95071.34;;;22.27;51.15
40205;BME280;26963;42.666;23.366;2022-08-05T05:01:20;95013.56;;;21.67;51.22
40205;BME280;26963;42.666;23.366;2022-08-05T05:03:45;95063.13;;;22.00;50.54
40205;BME280;26963;42.666;23.366;2022-08-05T05:06:14;95072.50;;;22.03;50.87
40205;BME280;26963;42.666;23.366;2022-08-05T05:08:39;94990.63;;;21.49;49.35
40205;BME280;26963;42.666;23.366;2022-08-05T05:11:08;95055.56;;;21.90;48.90
40205;BME280;26963;42.666;23.366;2022-08-05T05:13:34;95063.88;;;21.97;48.70
40205;BME280;26963;42.666;23.366;2022-08-05T05:16:00;94994.06;;;21.65;48.63
40205;BME280;26963;42.666;23.366;2022-08-05T05:18:25;94928.34;;;21.24;48.56
40205;BME280;26963;42.666;23.366;2022-08-05T05:20:51;95065.38;;;22.18;48.54
40205;BME280;26963;42.666;23.366;2022-08-05T05:23:16;95061.13;;;22.20;48.68
40205;BME280;26963;42.666;23.366;2022-08-05T05:25:43;95022.16;;;21.93;48.37
40205;BME280;26963;42.666;23.366;2022-08-05T05:28:09;95061.63;;;22.26;48.61
40205;BME280;26963;42.666;23.366;2022-08-05T05:30:38;94883.00;;;21.09;48.93
40205;BME280;26963;42.666;23.366;2022-08-05T05:33:07;95058.09;;;22.25;49.30
40205;BME280;26963;42.666;23.366;2022-08-05T05:35:33;95049.47;;;22.20;49.53
40205;BME280;26963;42.666;23.366;2022-08-05T05:38:00;94966.09;;;21.69;49.23
40205;BME280;26963;42.666;23.366;2022-08-05T05:40:29;95015.00;;;22.08;49.08
40205;BME280;26963;42.666;23.366;2022-08-05T05:42:55;95072.41;;;22.42;48.45
40205;BME280;26963;42.666;23.366;2022-08-05T05:45:21;95000.97;;;22.06;48.47
40205;BME280;26963;42.666;23.366;2022-08-05T05:47:47;95060.13;;;22.28;48.05
40205;BME280;26963;42.666;23.366;2022-08-05T05:50:17;95003.38;;;22.11;47.33
40205;BME280;26963;42.666;23.366;2022-08-05T05:52:43;94977.38;;;21.90;47.48
40205;BME280;26963;42.666;23.366;2022-08-05T05:55:16;95066.72;;;22.51;47.33
40205;BME280;26963;42.666;23.366;2022-08-05T05:57:43;95081.47;;;22.46;47.83
40205;BME280;26963;42.666;23.366;2022-08-05T06:00:12;94990.78;;;22.03;47.50
40205;BME280;26963;42.666;23.366;2022-08-05T06:02:39;95010.41;;;22.12;47.91
40205;BME280;26963;42.666;23.366;2022-08-05T06:05:10;95014.09;;;22.23;47.88
40205;BME280;26963;42.666;23.366;2022-08-05T06:07:39;95069.31;;;22.67;48.13
40205;BME280;26963;42.666;23.366;2022-08-05T06:10:08;95048.84;;;22.53;47.96
40205;BME280;26963;42.666;23.366;2022-08-05T06:12:37;95044.25;;;22.57;48.19
40205;BME280;26963;42.666;23.366;2022-08-05T06:15:12;94978.75;;;22.30;47.75
40205;BME280;26963;42.666;23.366;2022-08-05T06:17:43;95065.41;;;22.94;47.84
40205;BME280;26963;42.666;23.366;2022-08-05T06:20:12;95019.91;;;22.72;47.96
40205;BME280;26963;42.666;23.366;2022-08-05T06:22:38;95051.78;;;22.94;46.70
40205;BME280;26963;42.666;23.366;2022-08-05T06:25:09;95029.19;;;22.97;48.30
40205;BME280;26963;42.666;23.366;2022-08-05T06:27:34;95069.75;;;23.26;48.14
40205;BME280;26963;42.666;23.366;2022-08-05T06:30:03;95003.03;;;22.93;48.12
40205;BME280;26963;42.666;23.366;2022-08-05T06:32:29;94999.97;;;22.98;47.92
40205;BME280;26963;42.666;23.366;2022-08-05T06:34:55;94940.72;;;23.29;46.37
40205;BME280;26963;42.666;23.366;2022-08-05T06:37:23;95058.84;;;27.24;38.95
40205;BME280;26963;42.666;23.366;2022-08-05T06:39:52;95010.75;;;29.19;34.22
40205;BME280;26963;42.666;23.366;2022-08-05T06:42:17;95059.69;;;31.26;31.62
40205;BME280;26963;42.666;23.366;2022-08-05T06:44:43;95057.44;;;32.67;29.31
40205;BME280;26963;42.666;23.366;2022-08-05T06:47:11;95012.75;;;33.70;27.14
40205;BME280;26963;42.666;23.366;2022-08-05T06:49:40;95044.78;;;35.22;25.10
40205;BME280;26963;42.666;23.366;2022-08-05T06:52:08;95048.81;;;36.19;24.34
40205;BME280;26963;42.666;23.366;2022-08-05T06:54:34;95037.28;;;37.08;23.42
40205;BME280;26963;42.666;23.366;2022-08-05T06:57:05;94920.25;;;37.23;21.36
40205;BME280;26963;42.666;23.366;2022-08-05T06:59:35;95052.56;;;38.97;20.61
40205;BME280;26963;42.666;23.366;2022-08-05T07:02:04;95000.66;;;39.35;19.68
40205;BME280;26963;42.666;23.366;2022-08-05T07:04:33;95044.34;;;39.87;18.91
40205;BME280;26963;42.666;23.366;2022-08-05T07:07:03;94996.91;;;39.98;18.70
40205;BME280;26963;42.666;23.366;2022-08-05T07:09:29;95057.75;;;40.84;18.30
40205;BME280;26963;42.666;23.366;2022-08-05T07:11:54;95051.38;;;40.98;17.80
40205;BME280;26963;42.666;23.366;2022-08-05T07:14:23;94996.56;;;41.03;17.91
40205;BME280;26963;42.666;23.366;2022-08-05T07:17:07;95060.34;;;42.02;16.83
40205;BME280;26963;42.666;23.366;2022-08-05T07:19:33;95062.88;;;42.64;16.28
40205;BME280;26963;42.666;23.366;2022-08-05T07:21:58;95070.63;;;42.75;15.76
40205;BME280;26963;42.666;23.366;2022-08-05T07:24:27;95051.25;;;42.45;15.90
40205;BME280;26963;42.666;23.366;2022-08-05T07:26:53;95071.75;;;42.51;15.83
40205;BME280;26963;42.666;23.366;2022-08-05T07:29:18;94948.56;;;41.80;15.48
40205;BME280;26963;42.666;23.366;2022-08-05T07:31:44;95001.38;;;42.40;16.09
40205;BME280;26963;42.666;23.366;2022-08-05T07:34:12;95022.94;;;43.09;15.46
40205;BME280;26963;42.666;23.366;2022-08-05T07:36:37;95043.59;;;43.60;14.65
40205;BME280;26963;42.666;23.366;2022-08-05T07:39:05;95050.28;;;43.80;14.93
40205;BME280;26963;42.666;23.366;2022-08-05T07:41:32;95008.53;;;43.56;14.19
40205;BME280;26963;42.666;23.366;2022-08-05T07:43:58;95036.47;;;44.16;14.24
40205;BME280;26963;42.666;23.366;2022-08-05T07:46:26;95012.09;;;44.30;13.59
40205;BME280;26963;42.666;23.366;2022-08-05T12:54:46;94845.19;;;31.65;25.09
40205;BME280;26963;42.666;23.366;2022-08-05T12:57:34;94837.03;;;31.25;25.45
40205;BME280;26963;42.666;23.366;2022-08-05T13:00:19;94816.38;;;30.93;25.09
40205;BME280;26963;42.666;23.366;2022-08-05T13:02:47;94783.97;;;30.61;25.60
40205;BME280;26963;42.666;23.366;2022-08-05T13:05:16;94815.84;;;30.82;25.97
40205;BME280;26963;42.666;23.366;2022-08-05T13:07:42;94822.09;;;30.86;25.69
40205;BME280;26963;42.666;23.366;2022-08-05T13:10:11;94825.19;;;30.88;25.10
40205;BME280;26963;42.666;23.366;2022-08-05T13:12:44;94803.34;;;30.77;26.24
40205;BME280;26963;42.666;23.366;2022-08-05T13:15:11;94809.13;;;30.83;25.58
40205;BME280;26963;42.666;23.366;2022-08-05T13:17:37;94757.03;;;30.45;25.83
40205;BME280;26963;42.666;23.366;2022-08-05T13:20:14;94752.09;;;30.36;25.64
40205;BME280;26963;42.666;23.366;2022-08-05T13:22:51;94819.47;;;30.79;25.33
40205;BME280;26963;42.666;23.366;2022-08-05T13:25:20;94751.88;;;30.47;25.83
40205;BME280;26963;42.666;23.366;2022-08-05T13:27:48;94804.66;;;30.89;25.51
40205;BME280;26963;42.666;23.366;2022-08-05T13:30:16;94744.88;;;30.42;25.70
40205;BME280;26963;42.666;23.366;2022-08-05T13:32:42;94809.75;;;30.70;25.18
40205;BME280;26963;42.666;23.366;2022-08-05T13:35:14;94692.97;;;29.97;26.78
40205;BME280;26963;42.666;23.366;2022-08-05T13:37:40;94799.91;;;30.69;26.22
40205;BME280;26963;42.666;23.366;2022-08-05T13:40:07;94751.16;;;30.42;26.39
40205;BME280;26963;42.666;23.366;2022-08-05T13:42:33;94796.16;;;30.80;26.87
40205;BME280;26963;42.666;23.366;2022-08-05T13:44:59;94802.25;;;30.91;26.63
40205;BME280;26963;42.666;23.366;2022-08-05T13:47:28;94737.34;;;30.42;25.93
40205;BME280;26963;42.666;23.366;2022-08-05T13:49:58;94755.56;;;30.60;25.28
40205;BME280;26963;42.666;23.366;2022-08-05T13:52:25;94807.59;;;30.98;24.59
40205;BME280;26963;42.666;23.366;2022-08-05T13:54:51;94799.59;;;31.04;26.13
40205;BME280;26963;42.666;23.366;2022-08-05T13:57:20;94799.16;;;31.05;24.83
40205;BME280;26963;42.666;23.366;2022-08-05T13:59:51;94794.69;;;31.12;24.55
40205;BME280;26963;42.666;23.366;2022-08-05T14:02:25;94750.34;;;30.82;24.87
40205;BME280;26963;42.666;23.366;2022-08-05T14:04:51;94757.69;;;30.89;25.45
40205;BME280;26963;42.666;23.366;2022-08-05T14:07:41;94784.41;;;31.12;25.54
40205;BME280;26963;42.666;23.366;2022-08-05T14:10:10;94790.66;;;31.16;25.47
40205;BME280;26963;42.666;23.366;2022-08-05T14:12:41;94739.44;;;30.75;25.78
40205;BME280;26963;42.666;23.366;2022-08-05T14:15:11;94785.28;;;31.09;25.60
40205;BME280;26963;42.666;23.366;2022-08-05T14:17:40;94785.34;;;31.05;25.72
40205;BME280;26963;42.666;23.366;2022-08-05T14:20:09;94770.34;;;31.06;24.66
40205;BME280;26963;42.666;23.366;2022-08-05T14:22:35;94734.88;;;30.68;24.44
40205;BME280;26963;42.666;23.366;2022-08-05T14:28:02;94778.25;;;31.04;23.99
40205;BME280;26963;42.666;23.366;2022-08-05T14:30:28;94750.16;;;30.89;24.36
40205;BME280;26963;42.666;23.366;2022-08-05T14:32:53;94785.41;;;31.02;25.66
40205;BME280;26963;42.666;23.366;2022-08-05T14:35:22;94774.44;;;30.98;24.00
40205;BME280;26963;42.666;23.366;2022-08-05T14:37:51;94763.38;;;30.98;23.82
40205;BME280;26963;42.666;23.366;2022-08-05T14:40:17;94769.94;;;30.88;24.01
40205;BME280;26963;42.666;23.366;2022-08-05T14:42:43;94728.63;;;30.64;24.70
40205;BME280;26963;42.666;23.366;2022-08-05T14:45:09;94757.25;;;30.90;24.75
40205;BME280;26963;42.666;23.366;2022-08-05T14:47:34;94744.03;;;30.82;24.60
40205;BME280;26963;42.666;23.366;2022-08-05T14:50:09;94749.75;;;30.91;24.70
40205;BME280;26963;42.666;23.366;2022-08-05T14:52:34;94757.69;;;30.89;24.68
40205;BME280;26963;42.666;23.366;2022-08-05T14:55:03;94759.06;;;30.97;23.89
40205;BME280;26963;42.666;23.366;2022-08-05T14:57:31;94751.81;;;30.87;24.75
40205;BME280;26963;42.666;23.366;2022-08-05T14:59:57;94747.75;;;30.75;23.51
40205;BME280;26963;42.666;23.366;2022-08-05T15:02:22;94754.38;;;30.78;23.75
40205;BME280;26963;42.666;23.366;2022-08-05T15:04:48;94754.53;;;30.70;24.38
40205;BME280;26963;42.666;23.366;2022-08-05T15:07:13;94675.91;;;30.22;25.51
40205;BME280;26963;42.666;23.366;2022-08-05T15:09:42;94750.56;;;30.71;25.93
40205;BME280;26963;42.666;23.366;2022-08-05T15:12:08;94710.00;;;30.52;25.45
40205;BME280;26963;42.666;23.366;2022-08-05T15:14:34;94731.25;;;30.71;25.46
40205;BME280;26963;42.666;23.366;2022-08-05T15:16:59;94738.50;;;30.82;24.85
40205;BME280;26963;42.666;23.366;2022-08-05T15:19:25;94720.03;;;30.62;24.37
40205;BME280;26963;42.666;23.366;2022-08-05T15:21:50;94737.31;;;30.83;25.08
40205;BME280;26963;42.666;23.366;2022-08-05T15:24:19;94736.78;;;30.88;25.71
40205;BME280;26963;42.666;23.366;2022-08-05T15:26:47;94728.88;;;30.90;25.15
40205;BME280;26963;42.666;23.366;2022-08-05T15:29:13;94676.16;;;30.48;24.81
40205;BME280;26963;42.666;23.366;2022-08-05T15:31:38;94719.03;;;30.89;25.41
40205;BME280;26963;42.666;23.366;2022-08-05T15:34:07;94725.59;;;30.95;25.45
40205;BME280;26963;42.666;23.366;2022-08-05T15:36:36;94727.16;;;30.96;26.15
40205;BME280;26963;42.666;23.366;2022-08-05T15:39:01;94733.34;;;31.00;25.77
40205;BME280;26963;42.666;23.366;2022-08-05T15:41:30;94693.63;;;30.78;25.29
40205;BME280;26963;42.666;23.366;2022-08-05T15:43:55;94733.72;;;31.02;25.95
40205;BME280;26963;42.666;23.366;2022-08-05T15:46:22;94724.03;;;30.94;24.43
40205;BME280;26963;42.666;23.366;2022-08-05T15:48:53;94669.91;;;30.43;24.31
40205;BME280;26963;42.666;23.366;2022-08-05T15:51:19;94561.06;;;29.71;24.38
40205;BME280;26963;42.666;23.366;2022-08-05T15:53:49;94716.13;;;30.60;24.16
40205;BME280;26963;42.666;23.366;2022-08-05T15:56:16;94727.88;;;30.64;24.57
40205;BME280;26963;42.666;23.366;2022-08-05T15:58:42;94729.56;;;30.57;24.59
40205;BME280;26963;42.666;23.366;2022-08-05T16:01:07;94727.31;;;30.52;24.88
40205;BME280;26963;42.666;23.366;2022-08-05T16:03:41;94657.41;;;30.02;24.70
40205;BME280;26963;42.666;23.366;2022-08-05T16:06:08;94726.06;;;30.37;25.41
40205;BME280;26963;42.666;23.366;2022-08-05T16:08:34;94733.97;;;30.35;25.19
40205;BME280;26963;42.666;23.366;2022-08-05T16:11:00;94727.88;;;30.23;25.22
40205;BME280;26963;42.666;23.366;2022-08-05T16:13:26;94742.81;;;30.26;25.67
40205;BME280;26963;42.666;23.366;2022-08-05T16:15:51;94711.75;;;30.22;25.05
40205;BME280;26963;42.666;23.366;2022-08-05T16:18:17;94730.56;;;30.27;25.51
40205;BME280;26963;42.666;23.366;2022-08-05T16:20:43;94733.34;;;30.27;25.46
40205;BME280;26963;42.666;23.366;2022-08-05T16:23:09;94658.56;;;29.81;25.14
40205;BME280;26963;42.666;23.366;2022-08-05T16:25:35;94707.75;;;30.06;25.23
40205;BME280;26963;42.666;23.366;2022-08-05T16:28:05;94727.19;;;30.19;24.98
40205;BME280;26963;42.666;23.366;2022-08-05T16:30:31;94670.16;;;29.72;25.59
40205;BME280;26963;42.666;23.366;2022-08-05T16:32:58;94665.47;;;29.69;25.27
40205;BME280;26963;42.666;23.366;2022-08-05T16:35:30;94709.69;;;29.86;25.73
40205;BME280;26963;42.666;23.366;2022-08-05T16:37:56;94726.97;;;29.90;25.82
40205;BME280;26963;42.666;23.366;2022-08-05T16:40:22;94655.22;;;29.50;26.03
40205;BME280;26963;42.666;23.366;2022-08-05T16:42:52;94732.28;;;30.01;26.21
40205;BME280;26963;42.666;23.366;2022-08-05T16:45:24;94610.22;;;29.12;26.27
40205;BME280;26963;42.666;23.366;2022-08-05T16:47:54;94746.13;;;29.97;26.35
40205;BME280;26963;42.666;23.366;2022-08-05T16:50:20;94726.38;;;29.78;26.21
40205;BME280;26963;42.666;23.366;2022-08-05T16:52:48;94734.66;;;29.78;26.12
40205;BME280;26963;42.666;23.366;2022-08-05T16:55:16;94705.19;;;29.52;26.36
40205;BME280;26963;42.666;23.366;2022-08-05T16:57:45;94708.84;;;29.45;26.25
40205;BME280;26963;42.666;23.366;2022-08-05T17:00:11;94690.84;;;29.40;26.14
40205;BME280;26963;42.666;23.366;2022-08-05T17:02:37;94741.34;;;29.77;26.45
40205;BME280;26963;42.666;23.366;2022-08-05T17:05:07;94660.88;;;29.19;26.28
40205;BME280;26963;42.666;23.366;2022-08-05T17:07:33;94719.81;;;29.49;26.21
40205;BME280;26963;42.666;23.366;2022-08-05T17:09:58;94719.16;;;29.41;26.67
40205;BME280;26963;42.666;23.366;2022-08-05T17:12:24;94715.50;;;29.24;27.00
40205;BME280;26963;42.666;23.366;2022-08-05T17:14:55;94617.41;;;28.55;27.25
40205;BME280;26963;42.666;23.366;2022-08-05T17:17:23;94669.66;;;28.86;27.24
40205;BME280;26963;42.666;23.366;2022-08-05T17:20:04;94749.19;;;29.35;27.29
40205;BME280;26963;42.666;23.366;2022-08-05T17:22:34;94699.53;;;28.88;27.88
40205;BME280;26963;42.666;23.366;2022-08-05T17:25:00;94768.31;;;29.19;27.47
40205;BME280;26963;42.666;23.366;2022-08-05T17:27:27;94758.47;;;29.18;28.04
40205;BME280;26963;42.666;23.366;2022-08-05T17:29:53;94766.78;;;29.14;27.98
40205;BME280;26963;42.666;23.366;2022-08-05T17:32:19;94688.81;;;28.66;27.82
40205;BME280;26963;42.666;23.366;2022-08-05T17:34:45;94751.97;;;29.04;28.18
40205;BME280;26963;42.666;23.366;2022-08-05T17:37:13;94687.28;;;28.61;28.25
40205;BME280;26963;42.666;23.366;2022-08-05T17:39:42;94692.91;;;28.54;28.45
40205;BME280;26963;42.666;23.366;2022-08-05T17:42:07;94699.88;;;28.62;28.73
40205;BME280;26963;42.666;23.366;2022-08-05T17:44:33;94777.16;;;29.06;28.43
40205;BME280;26963;42.666;23.366;2022-08-05T17:47:07;94766.13;;;29.06;28.28
40205;BME280;26963;42.666;23.366;2022-08-05T17:49:33;94759.06;;;29.05;28.55
40205;BME280;26963;42.666;23.366;2022-08-05T17:51:59;94692.41;;;28.63;28.57
40205;BME280;26963;42.666;23.366;2022-08-05T17:54:25;94716.88;;;28.85;28.39
40205;BME280;26963;42.666;23.366;2022-08-05T17:56:50;94775.34;;;29.20;28.58
40205;BME280;26963;42.666;23.366;2022-08-05T17:59:16;94772.25;;;29.18;28.53
40205;BME280;26963;42.666;23.366;2022-08-05T18:01:47;94661.66;;;28.41;28.79
40205;BME280;26963;42.666;23.366;2022-08-05T18:04:13;94729.66;;;28.71;28.62
40205;BME280;26963;42.666;23.366;2022-08-05T18:06:43;94785.66;;;29.16;28.88
40205;BME280;26963;42.666;23.366;2022-08-05T18:09:09;94790.06;;;29.09;28.82
40205;BME280;26963;42.666;23.366;2022-08-05T18:11:38;94776.44;;;29.02;28.84
40205;BME280;26963;42.666;23.366;2022-08-05T18:14:04;94770.28;;;28.91;30.21
40205;BME280;26963;42.666;23.366;2022-08-05T18:16:37;94802.59;;;28.87;29.77